createdAt,value
2018-12-29T00:00:38.415Z,23.40
2018-12-29T00:01:38.404Z,24.50
2018-12-29T00:02:38.396Z,25.40
2018-12-29T00:03:38.380Z,24.40
2018-12-29T00:04:38.370Z,24.80
2018-12-29T00:05:38.359Z,24.40
2018-12-29T00:06:38.349Z,24.30
2018-12-29T00:07:38.338Z,23.70
2018-12-29T00:08:38.327Z,24.10
2018-12-29T00:09:38.315Z,23.40
2018-12-29T00:10:38.304Z,22.70
2018-12-29T00:11:38.293Z,22.60
2018-12-29T00:12:38.282Z,23.30
2018-12-29T00:13:38.271Z,24.20
2018-12-29T00:14:38.259Z,24.00
2018-12-29T00:15:38.318Z,24.50
2018-12-29T00:16:38.237Z,21.30
2018-12-29T00:17:38.226Z,23.90
2018-12-29T00:18:38.216Z,24.20
2018-12-29T00:19:38.204Z,24.50
2018-12-29T00:20:38.192Z,21.60
2018-12-29T00:21:38.182Z,23.30
2018-12-29T00:22:38.173Z,23.30
2018-12-29T00:23:38.160Z,23.90
2018-12-29T00:24:38.155Z,23.30
2018-12-29T00:25:38.138Z,23.90
2018-12-29T00:26:38.126Z,23.70
2018-12-29T00:27:38.116Z,23.90
2018-12-29T00:28:38.104Z,24.50
2018-12-29T00:29:38.093Z,23.50
2018-12-29T00:30:38.086Z,23.90
2018-12-29T00:31:38.072Z,24.10
2018-12-29T00:32:38.060Z,25.70
2018-12-29T00:33:38.058Z,25.00
2018-12-29T00:34:38.039Z,25.20
2018-12-29T00:35:38.028Z,24.50
2018-12-29T00:36:38.019Z,24.40
2018-12-29T00:37:38.006Z,25.80
2018-12-29T00:38:37.995Z,23.80
2018-12-29T00:39:37.983Z,23.00
2018-12-29T00:40:37.972Z,24.90
2018-12-29T00:41:37.961Z,25.70
2018-12-29T00:42:37.951Z,22.60
2018-12-29T00:43:37.940Z,23.30
2018-12-29T00:44:37.929Z,24.40
2018-12-29T00:45:37.918Z,24.60
2018-12-29T00:46:37.905Z,23.60
2018-12-29T00:47:37.895Z,25.40
2018-12-29T00:48:37.885Z,24.10
2018-12-29T00:49:37.873Z,23.50
2018-12-29T00:50:37.861Z,24.50
2018-12-29T00:51:37.851Z,24.70
2018-12-29T00:52:37.842Z,27.20
2018-12-29T00:53:37.829Z,26.00
2018-12-29T00:54:37.822Z,24.40
2018-12-29T00:55:37.812Z,25.60
2018-12-29T00:56:37.795Z,25.30
2018-12-29T00:57:37.784Z,25.80
2018-12-29T00:58:37.772Z,27.50
2018-12-29T00:59:37.761Z,25.40
2018-12-29T01:00:37.750Z,24.60
2018-12-29T01:01:37.739Z,25.30
2018-12-29T01:02:37.728Z,24.60
2018-12-29T01:03:37.719Z,27.00
2018-12-29T01:04:37.708Z,25.30
2018-12-29T01:05:37.694Z,26.20
2018-12-29T01:06:37.685Z,25.80
2018-12-29T01:07:37.673Z,24.90
2018-12-29T01:08:37.661Z,24.80
2018-12-29T01:09:37.650Z,25.30
2018-12-29T01:10:37.642Z,27.10
2018-12-29T01:11:37.628Z,29.20
2018-12-29T01:12:37.618Z,26.90
2018-12-29T01:13:37.608Z,26.10
2018-12-29T01:14:37.599Z,26.20
2018-12-29T01:15:37.584Z,27.30
2018-12-29T01:16:37.573Z,29.70
2018-12-29T01:17:37.564Z,27.20
2018-12-29T01:18:37.551Z,26.10
2018-12-29T01:19:37.539Z,28.30
2018-12-29T01:20:37.531Z,27.10
2018-12-29T01:21:37.518Z,27.10
2018-12-29T01:22:37.507Z,28.20
2018-12-29T01:23:37.495Z,30.20
2018-12-29T01:24:37.484Z,29.60
2018-12-29T01:25:37.473Z,30.30
2018-12-29T01:26:37.462Z,31.40
2018-12-29T01:27:37.452Z,30.80
2018-12-29T01:28:37.441Z,30.40
2018-12-29T01:29:37.429Z,30.70
2018-12-29T01:30:37.418Z,28.70
2018-12-29T01:31:37.407Z,30.30
2018-12-29T01:32:37.396Z,29.20
2018-12-29T01:33:37.386Z,28.50
2018-12-29T01:34:37.376Z,30.20
2018-12-29T01:35:37.364Z,29.10
2018-12-29T01:36:37.352Z,28.80
2018-12-29T01:37:37.341Z,27.60
2018-12-29T01:38:37.330Z,30.20
2018-12-29T01:39:37.319Z,26.40
2018-12-29T01:40:37.308Z,29.20
2018-12-29T01:41:37.295Z,30.10
2018-12-29T01:42:37.284Z,27.60
2018-12-29T01:43:37.275Z,29.80
2018-12-29T01:44:37.263Z,30.90
2018-12-29T01:45:37.252Z,27.00
2018-12-29T01:46:37.240Z,28.80
2018-12-29T01:47:37.229Z,28.90
2018-12-29T01:48:37.219Z,31.50
2018-12-29T01:49:37.209Z,28.90
2018-12-29T01:50:37.196Z,29.50
2018-12-29T01:51:37.248Z,29.90
2018-12-29T01:52:37.175Z,28.70
2018-12-29T01:53:37.163Z,29.00
2018-12-29T01:54:37.151Z,26.50
2018-12-29T01:55:37.141Z,30.50
2018-12-29T01:56:37.130Z,29.30
2018-12-29T01:57:37.118Z,30.60
2018-12-29T01:58:37.108Z,29.70
2018-12-29T01:59:37.097Z,29.90
2018-12-29T02:00:37.088Z,29.10
2018-12-29T02:01:37.076Z,27.00
2018-12-29T02:02:37.064Z,28.90
2018-12-29T02:03:37.053Z,27.60
2018-12-29T02:04:37.045Z,29.80
2018-12-29T02:05:37.034Z,27.60
2018-12-29T02:06:37.021Z,29.80
2018-12-29T02:07:37.011Z,32.30
2018-12-29T02:08:37.000Z,31.20
2018-12-29T02:09:36.989Z,32.90
2018-12-29T02:10:36.976Z,29.90
2018-12-29T02:11:36.966Z,30.30
2018-12-29T02:12:36.954Z,31.40
2018-12-29T02:13:36.943Z,31.40
2018-12-29T02:14:36.933Z,30.90
2018-12-29T02:15:36.922Z,29.40
2018-12-29T02:16:36.910Z,31.60
2018-12-29T02:17:36.898Z,30.80
2018-12-29T02:18:36.887Z,33.60
2018-12-29T02:19:36.877Z,32.90
2018-12-29T02:20:36.864Z,32.40
2018-12-29T02:21:36.855Z,35.10
2018-12-29T02:22:36.843Z,33.90
2018-12-29T02:23:36.834Z,32.40
2018-12-29T02:24:36.820Z,32.70
2018-12-29T02:25:36.810Z,33.20
2018-12-29T02:26:36.798Z,32.50
2018-12-29T02:27:36.793Z,34.20
2018-12-29T02:28:36.778Z,33.90
2018-12-29T02:29:36.765Z,32.40
2018-12-29T02:30:36.755Z,32.40
2018-12-29T02:31:36.743Z,34.80
2018-12-29T02:32:36.739Z,34.20
2018-12-29T02:33:36.720Z,31.20
2018-12-29T02:34:36.712Z,35.60
2018-12-29T02:35:36.704Z,33.50
2018-12-29T02:36:36.688Z,34.50
2018-12-29T02:37:36.678Z,34.60
2018-12-29T02:38:36.666Z,34.00
2018-12-29T02:39:36.693Z,33.70
2018-12-29T02:40:36.646Z,34.50
2018-12-29T02:41:36.633Z,35.70
2018-12-29T02:42:36.620Z,35.40
2018-12-29T02:43:36.611Z,35.90
2018-12-29T02:44:36.597Z,37.00
2018-12-29T02:45:36.587Z,34.60
2018-12-29T02:46:36.576Z,37.30
2018-12-29T02:47:36.565Z,35.00
2018-12-29T02:48:36.561Z,37.90
2018-12-29T02:49:36.543Z,35.10
2018-12-29T02:50:36.531Z,34.20
2018-12-29T02:51:36.522Z,34.80
2018-12-29T02:52:36.514Z,36.60
2018-12-29T02:53:36.499Z,36.90
2018-12-29T02:54:36.488Z,35.80
2018-12-29T02:55:36.477Z,37.10
2018-12-29T02:56:36.467Z,35.60
2018-12-29T02:57:36.454Z,37.70
2018-12-29T02:58:36.447Z,36.90
2018-12-29T02:59:36.434Z,37.50
2018-12-29T03:00:36.424Z,37.20
2018-12-29T03:01:36.411Z,37.70
2018-12-29T03:02:36.403Z,35.70
2018-12-29T03:03:36.389Z,34.30
2018-12-29T03:04:36.379Z,35.00
2018-12-29T03:05:36.367Z,35.00
2018-12-29T03:06:36.355Z,34.40
2018-12-29T03:07:36.344Z,36.20
2018-12-29T03:08:36.333Z,38.80
2018-12-29T03:09:36.323Z,36.70
2018-12-29T03:10:36.318Z,35.90
2018-12-29T03:11:36.299Z,37.10
2018-12-29T03:12:36.292Z,35.50
2018-12-29T03:13:36.278Z,37.30
2018-12-29T03:14:36.268Z,35.20
2018-12-29T03:15:41.365Z,36.20
2018-12-29T03:16:37.245Z,35.50
2018-12-29T03:17:36.233Z,35.90
2018-12-29T03:18:36.222Z,37.90
2018-12-29T03:19:36.211Z,37.00
2018-12-29T03:20:36.202Z,36.20
2018-12-29T03:21:36.188Z,36.30
2018-12-29T03:22:36.180Z,34.60
2018-12-29T03:23:36.170Z,32.00
2018-12-29T03:24:36.157Z,32.00
2018-12-29T03:25:36.148Z,34.70
2018-12-29T03:26:36.135Z,30.20
2018-12-29T03:27:36.157Z,31.70
2018-12-29T03:28:36.111Z,34.40
2018-12-29T03:29:36.100Z,34.90
2018-12-29T03:30:36.099Z,31.50
2018-12-29T03:31:36.088Z,31.60
2018-12-29T03:32:36.069Z,33.50
2018-12-29T03:33:36.057Z,32.20
2018-12-29T03:34:36.048Z,34.20
2018-12-29T03:35:36.034Z,34.10
2018-12-29T03:36:36.026Z,33.90
2018-12-29T03:37:36.015Z,32.70
2018-12-29T03:38:36.001Z,35.60
2018-12-29T03:39:35.992Z,35.00
2018-12-29T03:40:35.981Z,35.40
2018-12-29T03:41:35.969Z,33.50
2018-12-29T03:42:35.957Z,34.10
2018-12-29T03:43:35.952Z,33.10
2018-12-29T03:44:35.935Z,32.90
2018-12-29T03:45:35.928Z,34.50
2018-12-29T03:46:35.915Z,31.00
2018-12-29T03:47:35.901Z,33.00
2018-12-29T03:48:35.891Z,30.60
2018-12-29T03:49:35.883Z,30.60
2018-12-29T03:50:35.870Z,28.90
2018-12-29T03:51:35.859Z,33.30
2018-12-29T03:52:35.848Z,32.00
2018-12-29T03:53:35.836Z,33.20
2018-12-29T03:54:35.824Z,31.40
2018-12-29T03:55:35.813Z,31.70
2018-12-29T03:56:35.804Z,33.10
2018-12-29T03:57:35.792Z,32.60
2018-12-29T03:58:35.780Z,30.60
2018-12-29T03:59:35.768Z,33.30
2018-12-29T04:00:35.760Z,30.70
2018-12-29T04:01:35.746Z,32.80
2018-12-29T04:02:35.742Z,35.40
2018-12-29T04:03:35.726Z,34.60
2018-12-29T04:04:35.717Z,33.00
2018-12-29T04:05:35.705Z,33.90
2018-12-29T04:06:35.693Z,34.40
2018-12-29T04:07:35.681Z,35.50
2018-12-29T04:08:35.671Z,34.70
2018-12-29T04:09:35.661Z,34.90
2018-12-29T04:10:35.648Z,38.40
2018-12-29T04:11:35.636Z,36.70
2018-12-29T04:12:35.625Z,35.30
2018-12-29T04:13:35.615Z,35.90
2018-12-29T04:14:35.612Z,35.50
2018-12-29T04:15:35.593Z,35.20
2018-12-29T04:16:35.582Z,35.30
2018-12-29T04:17:35.571Z,36.60
2018-12-29T04:18:35.561Z,34.50
2018-12-29T04:19:35.547Z,35.50
2018-12-29T04:20:35.537Z,36.30
2018-12-29T04:21:35.526Z,35.50
2018-12-29T04:22:35.517Z,34.10
2018-12-29T04:23:35.505Z,34.00
2018-12-29T04:24:35.494Z,34.70
2018-12-29T04:25:35.481Z,31.90
2018-12-29T04:26:35.470Z,33.60
2018-12-29T04:27:35.461Z,35.00
2018-12-29T04:28:35.449Z,33.20
2018-12-29T04:29:35.504Z,34.40
2018-12-29T04:30:35.429Z,34.30
2018-12-29T04:31:35.414Z,35.40
2018-12-29T04:32:35.406Z,35.40
2018-12-29T04:33:35.395Z,34.00
2018-12-29T04:34:35.382Z,35.20
2018-12-29T04:35:35.371Z,36.90
2018-12-29T04:36:35.360Z,33.80
2018-12-29T04:37:35.349Z,34.70
2018-12-29T04:38:35.337Z,34.00
2018-12-29T04:39:35.325Z,33.50
2018-12-29T04:40:35.315Z,35.40
2018-12-29T04:41:35.305Z,35.50
2018-12-29T04:42:35.294Z,34.80
2018-12-29T04:43:35.282Z,33.70
2018-12-29T04:44:35.271Z,35.00
2018-12-29T04:45:35.260Z,37.80
2018-12-29T04:46:35.250Z,31.80
2018-12-29T04:47:35.237Z,36.10
2018-12-29T04:48:35.231Z,34.00
2018-12-29T04:49:35.216Z,36.70
2018-12-29T04:50:35.262Z,35.60
2018-12-29T04:51:35.196Z,36.00
2018-12-29T04:52:35.184Z,33.80
2018-12-29T04:53:35.175Z,37.60
2018-12-29T04:54:35.161Z,34.90
2018-12-29T04:55:35.152Z,35.70
2018-12-29T04:56:35.140Z,35.90
2018-12-29T04:57:35.127Z,34.80
2018-12-29T04:58:35.116Z,36.80
2018-12-29T04:59:35.105Z,34.90
2018-12-29T05:00:35.098Z,38.10
2018-12-29T05:01:35.086Z,37.30
2018-12-29T05:02:35.071Z,35.20
2018-12-29T05:03:35.061Z,36.40
2018-12-29T05:04:35.050Z,38.30
2018-12-29T05:05:35.040Z,38.30
2018-12-29T05:06:35.027Z,38.80
2018-12-29T05:07:35.081Z,40.60
2018-12-29T05:08:35.007Z,40.30
2018-12-29T05:09:34.995Z,37.70
2018-12-29T05:10:34.983Z,39.30
2018-12-29T05:11:34.975Z,38.70
2018-12-29T05:12:34.961Z,42.00
2018-12-29T05:13:34.950Z,40.60
2018-12-29T05:14:34.939Z,40.20
2018-12-29T05:15:34.928Z,40.60
2018-12-29T05:16:34.917Z,38.40
2018-12-29T05:17:34.910Z,38.90
2018-12-29T05:18:34.912Z,38.10
2018-12-29T05:19:34.885Z,35.90
2018-12-29T05:20:34.892Z,38.30
2018-12-29T05:21:34.864Z,36.40
2018-12-29T05:22:34.851Z,40.00
2018-12-29T05:23:34.840Z,37.50
2018-12-29T05:24:34.828Z,39.20
2018-12-29T05:25:34.818Z,38.30
2018-12-29T05:26:34.806Z,38.90
2018-12-29T05:27:34.795Z,38.10
2018-12-29T05:28:34.785Z,39.10
2018-12-29T05:29:34.774Z,39.10
2018-12-29T05:30:34.763Z,36.30
2018-12-29T05:31:34.751Z,36.50
2018-12-29T05:32:34.740Z,36.00
2018-12-29T05:33:34.728Z,35.80
2018-12-29T05:34:34.718Z,36.00
2018-12-29T05:35:34.706Z,36.70
2018-12-29T05:36:34.697Z,38.10
2018-12-29T05:37:34.685Z,33.70
2018-12-29T05:38:34.676Z,39.00
2018-12-29T05:39:34.663Z,36.10
2018-12-29T05:40:34.656Z,36.70
2018-12-29T05:41:34.640Z,35.30
2018-12-29T05:42:34.629Z,36.90
2018-12-29T05:43:34.619Z,38.10
2018-12-29T05:44:34.607Z,34.70
2018-12-29T05:45:34.597Z,33.00
2018-12-29T05:46:34.585Z,35.60
2018-12-29T05:47:34.575Z,36.80
2018-12-29T05:48:34.563Z,34.90
2018-12-29T05:49:34.552Z,40.90
2018-12-29T05:50:34.542Z,35.30
2018-12-29T05:51:34.530Z,37.70
2018-12-29T05:52:34.520Z,36.80
2018-12-29T05:53:34.509Z,35.80
2018-12-29T05:54:34.497Z,35.80
2018-12-29T05:55:34.486Z,36.30
2018-12-29T05:56:34.477Z,33.60
2018-12-29T05:57:34.463Z,35.40
2018-12-29T05:58:34.452Z,35.60
2018-12-29T05:59:34.444Z,35.80
2018-12-29T06:00:34.431Z,37.90
2018-12-29T06:01:34.421Z,34.80
2018-12-29T06:02:34.409Z,35.80
2018-12-29T06:03:34.398Z,37.00
2018-12-29T06:04:34.391Z,37.00
2018-12-29T06:05:34.377Z,34.40
2018-12-29T06:06:34.364Z,36.70
2018-12-29T06:07:34.356Z,36.90
2018-12-29T06:08:34.345Z,35.50
2018-12-29T06:09:34.333Z,34.60
2018-12-29T06:10:34.319Z,34.30
2018-12-29T06:11:34.310Z,36.90
2018-12-29T06:12:34.300Z,34.80
2018-12-29T06:13:34.287Z,35.20
2018-12-29T06:14:34.276Z,36.90
2018-12-29T06:15:34.264Z,37.10
2018-12-29T06:16:34.253Z,36.60
2018-12-29T06:17:34.246Z,36.70
2018-12-29T06:18:34.231Z,37.20
2018-12-29T06:19:34.222Z,34.70
2018-12-29T06:20:34.208Z,35.00
2018-12-29T06:21:34.261Z,39.50
2018-12-29T06:22:34.188Z,38.30
2018-12-29T06:23:34.179Z,39.90
2018-12-29T06:24:34.164Z,36.10
2018-12-29T06:25:34.155Z,38.00
2018-12-29T06:26:34.142Z,35.70
2018-12-29T06:27:34.131Z,37.30
2018-12-29T06:28:34.123Z,34.30
2018-12-29T06:29:34.108Z,34.40
2018-12-29T06:30:34.099Z,35.10
2018-12-29T06:31:34.088Z,32.50
2018-12-29T06:32:34.076Z,33.70
2018-12-29T06:33:34.065Z,32.90
2018-12-29T06:34:34.056Z,32.40
2018-12-29T06:35:34.044Z,32.90
2018-12-29T06:36:34.033Z,31.40
2018-12-29T06:37:34.030Z,31.80
2018-12-29T06:38:34.018Z,36.50
2018-12-29T06:39:33.998Z,34.20
2018-12-29T06:40:33.988Z,37.60
2018-12-29T06:41:33.980Z,35.10
2018-12-29T06:42:33.964Z,33.80
2018-12-29T06:43:33.958Z,32.70
2018-12-29T06:44:33.948Z,33.10
2018-12-29T06:45:33.932Z,35.00
2018-12-29T06:46:35.086Z,35.50
2018-12-29T06:47:33.910Z,35.80
2018-12-29T06:48:33.900Z,37.60
2018-12-29T06:49:33.892Z,36.50
2018-12-29T06:50:33.877Z,37.10
2018-12-29T06:51:33.867Z,36.10
2018-12-29T06:52:33.856Z,36.90
2018-12-29T06:53:33.845Z,36.30
2018-12-29T06:54:33.834Z,37.90
2018-12-29T06:55:33.825Z,37.50
2018-12-29T06:56:33.811Z,35.60
2018-12-29T06:57:33.799Z,37.80
2018-12-29T06:58:33.789Z,36.80
2018-12-29T06:59:33.779Z,38.80
2018-12-29T07:00:33.767Z,35.50
2018-12-29T07:01:33.758Z,39.40
2018-12-29T07:02:33.744Z,37.20
2018-12-29T07:03:33.733Z,34.80
2018-12-29T07:04:33.723Z,35.00
2018-12-29T07:05:33.712Z,37.70
2018-12-29T07:06:33.700Z,37.60
2018-12-29T07:07:33.689Z,37.00
2018-12-29T07:08:33.679Z,35.50
2018-12-29T07:09:33.668Z,33.70
2018-12-29T07:10:33.655Z,33.40
2018-12-29T07:11:33.647Z,38.30
2018-12-29T07:12:33.634Z,34.60
2018-12-29T07:13:33.624Z,35.20
2018-12-29T07:14:33.612Z,37.20
2018-12-29T07:15:33.605Z,37.00
2018-12-29T07:16:33.593Z,37.70
2018-12-29T07:17:33.579Z,37.60
2018-12-29T07:18:33.567Z,37.30
2018-12-29T07:19:33.556Z,37.10
2018-12-29T07:20:33.545Z,38.60
2018-12-29T07:21:33.535Z,37.70
2018-12-29T07:22:33.523Z,36.80
2018-12-29T07:23:33.511Z,37.60
2018-12-29T07:24:33.501Z,38.20
2018-12-29T07:25:33.490Z,41.60
2018-12-29T07:26:33.479Z,43.00
2018-12-29T07:27:33.468Z,40.90
2018-12-29T07:28:33.459Z,43.00
2018-12-29T07:29:38.264Z,38.20
2018-12-29T07:30:34.433Z,42.50
2018-12-29T07:31:33.426Z,41.90
2018-12-29T07:32:33.412Z,38.40
2018-12-29T07:33:33.403Z,39.60
2018-12-29T07:34:33.391Z,38.70
2018-12-29T07:35:33.379Z,42.50
2018-12-29T07:36:33.369Z,39.30
2018-12-29T07:37:33.357Z,39.90
2018-12-29T07:38:33.346Z,42.30
2018-12-29T07:39:33.337Z,43.60
2018-12-29T07:40:33.324Z,40.50
2018-12-29T07:41:33.316Z,42.40
2018-12-29T07:42:33.301Z,42.10
2018-12-29T07:43:33.294Z,40.30
2018-12-29T07:44:33.281Z,40.30
2018-12-29T07:45:33.270Z,40.10
2018-12-29T07:46:33.257Z,39.30
2018-12-29T07:47:33.248Z,41.30
2018-12-29T07:48:33.235Z,40.20
2018-12-29T07:49:33.224Z,40.40
2018-12-29T07:50:33.214Z,42.80
2018-12-29T07:51:33.202Z,40.60
2018-12-29T07:52:33.192Z,43.10
2018-12-29T07:53:33.180Z,39.80
2018-12-29T07:54:33.169Z,40.20
2018-12-29T07:55:33.158Z,42.30
2018-12-29T07:56:33.148Z,41.20
2018-12-29T07:57:33.136Z,42.10
2018-12-29T07:58:33.126Z,42.00
2018-12-29T07:59:33.114Z,41.80
2018-12-29T08:00:33.103Z,41.60
2018-12-29T08:01:33.092Z,41.30
2018-12-29T08:02:33.083Z,42.80
2018-12-29T08:03:33.070Z,41.00
2018-12-29T08:04:33.059Z,41.60
2018-12-29T08:05:33.050Z,39.80
2018-12-29T08:06:33.038Z,44.20
2018-12-29T08:07:33.026Z,44.20
2018-12-29T08:08:33.014Z,44.60
2018-12-29T08:09:33.004Z,43.70
2018-12-29T08:10:32.992Z,43.10
2018-12-29T08:11:32.980Z,44.40
2018-12-29T08:12:32.972Z,43.80
2018-12-29T08:13:32.960Z,43.00
2018-12-29T08:14:32.949Z,44.90
2018-12-29T08:15:32.941Z,46.20
2018-12-29T08:16:32.927Z,45.50
2018-12-29T08:17:32.916Z,45.00
2018-12-29T08:18:32.903Z,44.10
2018-12-29T08:19:32.892Z,39.50
2018-12-29T08:20:32.881Z,42.50
2018-12-29T08:21:32.871Z,48.60
2018-12-29T08:22:32.861Z,43.10
2018-12-29T08:23:32.848Z,40.80
2018-12-29T08:24:32.837Z,44.50
2018-12-29T08:25:32.827Z,39.90
2018-12-29T08:26:32.815Z,40.20
2018-12-29T08:27:32.804Z,41.00
2018-12-29T08:28:32.795Z,40.60
2018-12-29T08:29:32.782Z,39.50
2018-12-29T08:30:32.770Z,44.00
2018-12-29T08:31:32.761Z,41.70
2018-12-29T08:32:32.748Z,40.10
2018-12-29T08:33:32.737Z,42.30
2018-12-29T08:34:32.727Z,39.40
2018-12-29T08:35:32.716Z,45.30
2018-12-29T08:36:32.708Z,42.50
2018-12-29T08:37:32.693Z,39.50
2018-12-29T08:38:32.689Z,38.50
2018-12-29T08:39:32.675Z,43.70
2018-12-29T08:40:32.660Z,40.50
2018-12-29T08:41:32.650Z,39.30
2018-12-29T08:42:32.639Z,40.90
2018-12-29T08:43:32.629Z,43.70
2018-12-29T08:44:32.615Z,41.80
2018-12-29T08:45:32.605Z,42.70
2018-12-29T08:46:32.598Z,41.40
2018-12-29T08:47:32.583Z,40.50
2018-12-29T08:48:32.571Z,40.30
2018-12-29T08:49:32.561Z,40.90
2018-12-29T08:50:32.549Z,40.40
2018-12-29T08:51:32.538Z,41.70
2018-12-29T08:52:32.528Z,40.70
2018-12-29T08:53:32.515Z,39.70
2018-12-29T08:54:32.506Z,39.80
2018-12-29T08:55:32.494Z,41.70
2018-12-29T08:56:32.483Z,39.80
2018-12-29T08:57:32.472Z,41.90
2018-12-29T08:58:32.461Z,40.50
2018-12-29T08:59:32.450Z,41.70
2018-12-29T09:00:32.446Z,42.10
2018-12-29T09:01:32.427Z,39.20
2018-12-29T09:02:32.417Z,41.70
2018-12-29T09:03:32.406Z,40.00
2018-12-29T09:04:32.395Z,43.40
2018-12-29T09:05:32.391Z,38.80
2018-12-29T09:06:32.373Z,37.70
2018-12-29T09:07:32.360Z,40.20
2018-12-29T09:08:32.352Z,40.90
2018-12-29T09:09:32.340Z,43.70
2018-12-29T09:10:32.337Z,44.10
2018-12-29T09:11:32.316Z,40.30
2018-12-29T09:12:32.305Z,38.60
2018-12-29T09:13:32.295Z,38.40
2018-12-29T09:14:32.283Z,40.60
2018-12-29T09:15:32.273Z,41.40
2018-12-29T09:16:32.261Z,40.80
2018-12-29T09:17:32.252Z,41.50
2018-12-29T09:18:32.242Z,41.00
2018-12-29T09:19:32.228Z,43.00
2018-12-29T09:20:32.218Z,41.50
2018-12-29T09:21:32.206Z,40.70
2018-12-29T09:22:32.198Z,40.50
2018-12-29T09:23:32.188Z,43.90
2018-12-29T09:24:32.173Z,43.00
2018-12-29T09:25:32.162Z,41.20
2018-12-29T09:26:32.152Z,45.00
2018-12-29T09:27:32.144Z,42.60
2018-12-29T09:28:32.134Z,40.70
2018-12-29T09:29:32.118Z,44.80
2018-12-29T09:30:32.109Z,42.70
2018-12-29T09:31:32.096Z,42.50
2018-12-29T09:32:32.085Z,38.80
2018-12-29T09:33:32.074Z,38.40
2018-12-29T09:34:32.065Z,41.00
2018-12-29T09:35:32.051Z,42.40
2018-12-29T09:36:32.040Z,41.10
2018-12-29T09:37:32.030Z,39.60
2018-12-29T09:38:32.019Z,42.20
2018-12-29T09:39:32.007Z,40.30
2018-12-29T09:40:31.997Z,38.50
2018-12-29T09:41:31.987Z,41.00
2018-12-29T09:42:31.974Z,41.20
2018-12-29T09:43:31.963Z,41.20
2018-12-29T09:44:31.954Z,35.80
2018-12-29T09:45:31.942Z,36.10
2018-12-29T09:46:31.934Z,35.50
2018-12-29T09:47:31.921Z,34.60
2018-12-29T09:48:31.907Z,35.20
2018-12-29T09:49:31.896Z,34.90
2018-12-29T09:50:31.885Z,33.40
2018-12-29T09:51:31.876Z,32.70
2018-12-29T09:52:31.863Z,32.40
2018-12-29T09:53:31.852Z,34.60
2018-12-29T09:54:31.841Z,32.10
2018-12-29T09:55:31.830Z,32.00
2018-12-29T09:56:31.818Z,28.00
2018-12-29T09:57:31.809Z,35.00
2018-12-29T09:58:31.796Z,32.70
2018-12-29T09:59:31.785Z,30.10
2018-12-29T10:00:31.773Z,30.20
2018-12-29T10:01:31.764Z,29.90
2018-12-29T10:02:31.753Z,28.90
2018-12-29T10:03:31.745Z,30.40
2018-12-29T10:04:31.747Z,27.90
2018-12-29T10:05:31.723Z,28.00
2018-12-29T10:06:31.708Z,29.80
2018-12-29T10:07:31.696Z,28.20
2018-12-29T10:08:31.687Z,30.50
2018-12-29T10:09:31.678Z,26.20
2018-12-29T10:10:31.664Z,27.20
2018-12-29T10:11:31.652Z,30.10
2018-12-29T10:12:31.640Z,26.80
2018-12-29T10:13:31.634Z,28.00
2018-12-29T10:14:31.626Z,30.30
2018-12-29T10:15:31.609Z,28.40
2018-12-29T10:16:31.597Z,27.50
2018-12-29T10:17:31.587Z,27.40
2018-12-29T10:18:31.579Z,28.60
2018-12-29T10:19:31.565Z,28.80
2018-12-29T10:20:31.555Z,29.60
2018-12-29T10:21:31.543Z,29.50
2018-12-29T10:22:31.532Z,28.00
2018-12-29T10:23:31.521Z,26.10
2018-12-29T10:24:31.511Z,27.80
2018-12-29T10:25:31.499Z,27.80
2018-12-29T10:26:31.487Z,27.90
2018-12-29T10:27:31.476Z,28.10
2018-12-29T10:28:31.466Z,27.10
2018-12-29T10:29:31.455Z,27.90
2018-12-29T10:30:31.444Z,28.90
2018-12-29T10:31:31.436Z,29.90
2018-12-29T10:32:31.422Z,29.10
2018-12-29T10:33:31.410Z,30.10
2018-12-29T10:34:31.402Z,30.00
2018-12-29T10:35:31.397Z,27.20
2018-12-29T10:36:31.379Z,31.90
2018-12-29T10:37:31.401Z,27.40
2018-12-29T10:38:31.355Z,30.40
2018-12-29T10:39:31.346Z,30.40
2018-12-29T10:40:31.334Z,31.00
2018-12-29T10:41:31.321Z,30.50
2018-12-29T10:42:31.315Z,28.90
2018-12-29T10:43:31.304Z,31.60
2018-12-29T10:44:31.292Z,31.40
2018-12-29T10:45:31.279Z,29.30
2018-12-29T10:46:31.267Z,29.10
2018-12-29T10:47:34.715Z,30.10
2018-12-29T10:48:31.247Z,29.90
2018-12-29T10:49:31.233Z,32.20
2018-12-29T10:50:31.221Z,30.10
2018-12-29T10:51:31.211Z,31.00
2018-12-29T10:52:31.200Z,32.60
2018-12-29T10:53:31.189Z,32.80
2018-12-29T10:54:31.177Z,32.30
2018-12-29T10:55:31.168Z,31.00
2018-12-29T10:56:31.154Z,31.80
2018-12-29T10:57:31.144Z,33.60
2018-12-29T10:58:31.133Z,29.70
2018-12-29T10:59:31.122Z,31.80
2018-12-29T11:00:34.992Z,33.20
2018-12-29T11:01:31.103Z,31.80
2018-12-29T11:02:31.089Z,33.10
2018-12-29T11:03:31.079Z,31.20
2018-12-29T11:04:31.068Z,33.50
2018-12-29T11:05:31.057Z,37.70
2018-12-29T11:06:31.053Z,51.30
2018-12-29T11:07:31.034Z,53.00
2018-12-29T11:08:31.031Z,57.50
2018-12-29T11:09:31.016Z,44.40
2018-12-29T11:10:31.001Z,35.30
2018-12-29T11:11:30.991Z,34.70
2018-12-29T11:12:30.979Z,34.90
2018-12-29T11:13:30.967Z,32.30
2018-12-29T11:14:30.957Z,33.70
2018-12-29T11:15:30.947Z,33.50
2018-12-29T11:16:30.934Z,31.40
2018-12-29T11:17:30.925Z,33.00
2018-12-29T11:18:30.915Z,33.30
2018-12-29T11:19:30.906Z,34.10
2018-12-29T11:20:30.889Z,33.20
2018-12-29T11:21:30.880Z,33.40
2018-12-29T11:22:30.868Z,30.20
2018-12-29T11:23:30.858Z,32.30
2018-12-29T11:24:30.846Z,29.00
2018-12-29T11:25:30.835Z,33.30
2018-12-29T11:26:30.825Z,29.40
2018-12-29T11:27:30.814Z,29.40
2018-12-29T11:28:30.802Z,30.10
2018-12-29T11:29:30.789Z,31.20
2018-12-29T11:30:30.787Z,33.20
2018-12-29T11:31:30.768Z,32.70
2018-12-29T11:32:30.764Z,27.40
2018-12-29T11:33:30.747Z,32.80
2018-12-29T11:34:30.740Z,29.00
2018-12-29T11:35:30.726Z,29.60
2018-12-29T11:36:30.714Z,30.70
2018-12-29T11:37:30.702Z,32.50
2018-12-29T11:38:30.691Z,31.70
2018-12-29T11:39:30.699Z,29.00
2018-12-29T11:40:30.779Z,29.00
2018-12-29T11:41:30.659Z,28.60
2018-12-29T11:42:30.647Z,30.90
2018-12-29T11:43:30.645Z,27.70
2018-12-29T11:44:30.626Z,30.30
2018-12-29T11:45:30.617Z,30.30
2018-12-29T11:46:30.605Z,28.50
2018-12-29T11:47:30.599Z,30.60
2018-12-29T11:48:30.580Z,29.10
2018-12-29T11:49:30.569Z,28.80
2018-12-29T11:50:30.560Z,29.90
2018-12-29T11:51:30.547Z,29.30
2018-12-29T11:52:30.537Z,27.40
2018-12-29T11:53:30.526Z,30.80
2018-12-29T11:54:30.515Z,32.80
2018-12-29T11:55:30.512Z,29.80
2018-12-29T11:56:30.493Z,28.50
2018-12-29T11:57:30.481Z,30.90
2018-12-29T11:58:30.471Z,31.00
2018-12-29T11:59:30.460Z,30.90
2018-12-29T12:00:30.452Z,30.30
2018-12-29T12:01:30.436Z,32.30
2018-12-29T12:02:30.425Z,30.50
2018-12-29T12:03:30.419Z,27.50
2018-12-29T12:04:30.403Z,28.40
2018-12-29T12:05:30.393Z,29.80
2018-12-29T12:06:30.382Z,31.00
2018-12-29T12:07:30.375Z,31.30
2018-12-29T12:08:30.361Z,33.00
2018-12-29T12:09:30.467Z,43.10
2018-12-29T12:10:30.337Z,42.50
2018-12-29T12:11:30.326Z,49.00
2018-12-29T12:12:30.314Z,58.50
2018-12-29T12:13:30.305Z,43.00
2018-12-29T12:14:30.297Z,38.60
2018-12-29T12:15:30.282Z,35.10
2018-12-29T12:16:30.275Z,32.80
2018-12-29T12:17:30.260Z,32.20
2018-12-29T12:18:30.250Z,31.00
2018-12-29T12:19:30.241Z,30.90
2018-12-29T12:20:30.227Z,31.00
2018-12-29T12:21:30.215Z,30.50
2018-12-29T12:22:30.205Z,29.40
2018-12-29T12:23:30.194Z,29.00
2018-12-29T12:24:30.182Z,25.90
2018-12-29T12:25:30.171Z,30.60
2018-12-29T12:26:30.160Z,26.40
2018-12-29T12:27:30.149Z,30.80
2018-12-29T12:28:30.139Z,30.70
2018-12-29T12:29:30.127Z,29.30
2018-12-29T12:30:30.124Z,29.10
2018-12-29T12:31:30.105Z,29.90
2018-12-29T12:32:30.095Z,29.50
2018-12-29T12:33:30.084Z,31.60
2018-12-29T12:34:30.073Z,30.60
2018-12-29T12:35:30.063Z,30.80
2018-12-29T12:36:30.055Z,31.50
2018-12-29T12:37:30.042Z,30.10
2018-12-29T12:38:30.029Z,29.70
2018-12-29T12:39:30.016Z,30.50
2018-12-29T12:40:30.005Z,30.20
2018-12-29T12:41:30.000Z,31.30
2018-12-29T12:42:29.988Z,30.10
2018-12-29T12:43:29.973Z,30.70
2018-12-29T12:44:29.961Z,30.30
2018-12-29T12:45:29.949Z,30.80
2018-12-29T12:46:29.939Z,29.10
2018-12-29T12:47:29.931Z,30.20
2018-12-29T12:48:29.919Z,27.70
2018-12-29T12:49:29.906Z,28.70
2018-12-29T12:50:29.896Z,31.50
2018-12-29T12:51:29.885Z,29.20
2018-12-29T12:52:29.873Z,29.20